createdAt,value
2023-04-08T05:51:24.919Z,28.13
2023-04-08T05:52:24.815Z,28.13
2023-04-08T05:53:24.605Z,28.13
2023-04-08T05:54:24.440Z,28.13
2023-04-08T05:55:24.730Z,28.13
2023-04-08T05:56:24.265Z,28.13
2023-04-08T05:57:24.180Z,28.13
2023-04-08T05:58:24.138Z,28.13
2023-04-08T05:59:24.040Z,28.13
2023-04-08T06:00:23.999Z,33.75
2023-04-08T06:01:23.918Z,33.75
2023-04-08T06:02:23.922Z,33.75
2023-04-08T06:03:24.149Z,33.75
2023-04-08T06:04:23.923Z,33.75
2023-04-08T06:05:23.639Z,33.75
2023-04-08T06:06:23.574Z,33.75
2023-04-08T06:07:23.496Z,33.75
2023-04-08T06:08:23.425Z,33.75
2023-04-08T06:09:23.380Z,33.75
2023-04-08T06:10:23.305Z,33.75
2023-04-08T06:11:23.219Z,33.75
2023-04-08T06:12:23.152Z,33.75
2023-04-08T06:13:23.110Z,33.75
2023-04-08T06:14:23.013Z,33.75
2023-04-08T06:15:22.959Z,33.75
2023-04-08T06:16:22.927Z,39.38
2023-04-08T06:17:22.837Z,39.38
2023-04-08T06:18:22.749Z,39.38
2023-04-08T06:19:22.676Z,39.38
2023-04-08T06:20:22.647Z,39.38
2023-04-08T06:21:22.553Z,39.38
2023-04-08T06:22:22.502Z,39.38
2023-04-08T06:23:22.403Z,39.38
2023-04-08T06:24:22.355Z,39.38
2023-04-08T06:25:22.266Z,39.38
2023-04-08T06:26:22.204Z,39.38
2023-04-08T06:27:22.139Z,39.38
2023-04-08T06:28:22.096Z,39.38
2023-04-08T06:29:22.026Z,39.38
2023-04-08T06:30:21.934Z,39.38
2023-04-08T06:31:21.933Z,39.38
2023-04-08T06:32:21.900Z,39.38
2023-04-08T06:33:21.753Z,39.38
2023-04-08T06:34:21.658Z,39.38
2023-04-08T06:35:21.611Z,39.38
2023-04-08T06:36:21.619Z,39.38
2023-04-08T06:37:21.490Z,39.38
2023-04-08T06:38:21.390Z,39.38
2023-04-08T06:39:21.424Z,39.38
2023-04-08T06:40:21.335Z,39.38
2023-04-08T06:41:21.192Z,39.38
2023-04-08T06:42:22.600Z,39.38
2023-04-08T06:43:21.088Z,45.00
2023-04-08T06:44:21.026Z,45.00
2023-04-08T06:45:20.916Z,50.63
2023-04-08T06:46:20.978Z,50.63
2023-04-08T06:47:20.807Z,50.63
2023-04-08T06:48:21.058Z,56.25
2023-04-08T06:49:20.648Z,56.25
2023-04-08T06:50:20.602Z,61.88
2023-04-08T06:51:20.519Z,61.88
2023-04-08T06:52:20.450Z,61.88
2023-04-08T06:53:20.395Z,56.25
2023-04-08T06:54:20.310Z,61.88
2023-04-08T06:55:20.250Z,61.88
2023-04-08T06:56:20.176Z,61.88
2023-04-08T06:57:20.109Z,61.88
2023-04-08T06:58:20.074Z,61.88
2023-04-08T06:59:19.979Z,61.88
2023-04-08T07:00:20.024Z,61.88
2023-04-08T07:01:19.915Z,61.88
2023-04-08T07:02:19.900Z,61.88
2023-04-08T07:03:19.779Z,61.88
2023-04-08T07:04:19.882Z,56.25
2023-04-08T07:05:19.614Z,56.25
2023-04-08T07:06:19.511Z,56.25
2023-04-08T07:07:19.436Z,56.25
2023-04-08T07:08:19.377Z,61.88
2023-04-08T07:09:19.304Z,61.88
2023-04-08T07:10:19.240Z,61.88
2023-04-08T07:11:19.171Z,67.50
2023-04-08T07:12:19.123Z,67.50
2023-04-08T07:13:19.046Z,73.13
2023-04-08T07:14:18.974Z,73.13
2023-04-08T07:15:18.911Z,73.13
2023-04-08T07:16:18.905Z,73.13
2023-04-08T07:17:18.770Z,78.75
2023-04-08T07:18:18.734Z,78.75
2023-04-08T07:19:18.653Z,78.75
2023-04-08T07:20:18.607Z,78.75
2023-04-08T07:21:18.497Z,78.75
2023-04-08T07:22:18.495Z,78.75
2023-04-08T07:23:18.373Z,78.75
2023-04-08T07:24:18.296Z,78.75
2023-04-08T07:25:18.237Z,78.75
2023-04-08T07:26:18.187Z,78.75
2023-04-08T07:27:18.096Z,78.75
2023-04-08T07:28:18.028Z,84.38
2023-04-08T07:29:17.976Z,84.38
2023-04-08T07:30:17.933Z,84.38
2023-04-08T07:31:17.904Z,90.00
2023-04-08T07:32:17.765Z,90.00
2023-04-08T07:33:17.724Z,90.00
2023-04-08T07:34:17.627Z,90.00
2023-04-08T07:35:17.602Z,90.00
2023-04-08T07:36:17.497Z,90.00
2023-04-08T07:37:17.453Z,90.00
2023-04-08T07:38:17.362Z,90.00
2023-04-08T07:39:17.294Z,90.00
2023-04-08T07:40:17.254Z,90.00
2023-04-08T07:41:17.179Z,90.00
2023-04-08T07:42:17.089Z,90.00
2023-04-08T07:43:17.027Z,90.00
2023-04-08T07:44:17.010Z,90.00
2023-04-08T07:45:16.892Z,90.00
2023-04-08T07:46:16.874Z,90.00
2023-04-08T07:47:16.792Z,90.00
2023-04-08T07:48:16.718Z,90.00
2023-04-08T07:49:16.638Z,90.00
2023-04-08T07:50:16.560Z,90.00
2023-04-08T07:51:16.518Z,90.00
2023-04-08T07:52:16.448Z,90.00
2023-04-08T07:53:16.363Z,90.00
2023-04-08T07:54:16.308Z,95.63
2023-04-08T07:55:16.256Z,95.63
2023-04-08T07:56:16.250Z,95.63
2023-04-08T07:57:16.092Z,95.63
2023-04-08T07:58:16.034Z,95.63
2023-04-08T07:59:15.957Z,95.63
2023-04-08T08:00:15.901Z,95.63
2023-04-08T08:01:15.823Z,95.63
2023-04-08T08:02:15.920Z,95.63
2023-04-08T08:03:15.805Z,95.63
2023-04-08T08:04:15.735Z,95.63
2023-04-08T08:05:15.713Z,90.00
2023-04-08T08:06:15.543Z,90.00
2023-04-08T08:07:15.424Z,90.00
2023-04-08T08:08:15.354Z,90.00
2023-04-08T08:09:15.295Z,90.00
2023-04-08T08:10:15.224Z,90.00
2023-04-08T08:11:15.192Z,90.00
2023-04-08T08:12:15.110Z,90.00
2023-04-08T08:13:15.028Z,90.00
2023-04-08T08:14:14.959Z,90.00
2023-04-08T08:15:14.898Z,84.38
2023-04-08T08:16:14.929Z,90.00
2023-04-08T08:17:14.761Z,84.38
2023-04-08T08:18:14.741Z,84.38
2023-04-08T08:19:14.666Z,84.38
2023-04-08T08:20:14.572Z,84.38
2023-04-08T08:21:14.533Z,84.38
2023-04-08T08:22:14.428Z,84.38
2023-04-08T08:23:14.360Z,84.38
2023-04-08T08:24:14.299Z,78.75
2023-04-08T08:25:14.231Z,78.75
2023-04-08T08:26:14.202Z,78.75
2023-04-08T08:27:14.099Z,73.13
2023-04-08T08:28:14.048Z,73.13
2023-04-08T08:29:13.966Z,67.50
2023-04-08T08:30:13.899Z,67.50
2023-04-08T08:31:13.867Z,67.50
2023-04-08T08:32:13.770Z,61.88
2023-04-08T08:33:13.698Z,61.88
2023-04-08T08:34:13.634Z,61.88
2023-04-08T08:35:13.592Z,56.25
2023-04-08T08:36:13.524Z,56.25
2023-04-08T08:37:13.460Z,56.25
2023-04-08T08:38:13.366Z,56.25
2023-04-08T08:39:13.304Z,56.25
2023-04-08T08:40:13.230Z,56.25
2023-04-08T08:41:13.165Z,56.25
2023-04-08T08:42:13.096Z,61.88
2023-04-08T08:43:13.082Z,61.88
2023-04-08T08:44:12.971Z,61.88
2023-04-08T08:45:12.902Z,61.88
2023-04-08T08:46:12.875Z,67.50
2023-04-08T08:47:12.774Z,67.50
2023-04-08T08:48:12.698Z,67.50
2023-04-08T08:49:12.649Z,61.88
2023-04-08T08:50:12.566Z,61.88
2023-04-08T08:51:12.518Z,67.50
2023-04-08T08:52:12.448Z,67.50
2023-04-08T08:53:12.399Z,67.50
2023-04-08T08:54:12.306Z,67.50
2023-04-08T08:55:25.520Z,67.50
2023-04-08T08:56:17.372Z,73.13
2023-04-08T08:57:12.104Z,67.50
2023-04-08T08:58:12.032Z,67.50
2023-04-08T08:59:11.983Z,73.13
2023-04-08T09:00:11.900Z,73.13
2023-04-08T09:01:11.844Z,78.75
2023-04-08T09:02:11.822Z,84.38
2023-04-08T09:03:11.935Z,84.38
2023-04-08T09:04:11.776Z,84.38
2023-04-08T09:05:11.732Z,84.38
2023-04-08T09:06:12.747Z,90.00
2023-04-08T09:07:11.435Z,90.00
2023-04-08T09:08:11.362Z,95.63
2023-04-08T09:09:11.438Z,95.63
2023-04-08T09:10:11.223Z,95.63
2023-04-08T09:11:11.161Z,90.00
2023-04-08T09:12:11.116Z,90.00
2023-04-08T09:13:11.077Z,90.00
2023-04-08T09:14:10.960Z,90.00
2023-04-08T09:15:10.898Z,90.00
2023-04-08T09:16:10.902Z,90.00
2023-04-08T09:17:10.760Z,90.00
2023-04-08T09:18:10.703Z,90.00
2023-04-08T09:19:10.658Z,90.00
2023-04-08T09:20:10.559Z,90.00
2023-04-08T09:21:10.490Z,84.38
2023-04-08T09:22:10.435Z,84.38
2023-04-08T09:23:10.359Z,90.00
2023-04-08T09:24:10.294Z,84.38
2023-04-08T09:25:10.239Z,84.38
2023-04-08T09:26:10.160Z,84.38
2023-04-08T09:27:10.107Z,84.38
2023-04-08T09:28:10.056Z,84.38
2023-04-08T09:29:25.218Z,84.38
2023-04-08T09:30:09.892Z,84.38
2023-04-08T09:31:09.862Z,84.38
2023-04-08T09:32:09.758Z,84.38
2023-04-08T09:33:09.693Z,84.38
2023-04-08T09:34:09.636Z,84.38
2023-04-08T09:35:09.568Z,84.38
2023-04-08T09:36:09.518Z,84.38
2023-04-08T09:37:09.466Z,84.38
2023-04-08T09:38:09.359Z,84.38
2023-04-08T09:39:09.291Z,84.38
2023-04-08T09:40:09.228Z,84.38
2023-04-08T09:41:09.152Z,84.38
2023-04-08T09:42:09.089Z,90.00
2023-04-08T09:43:09.028Z,90.00
2023-04-08T09:44:08.954Z,95.63
2023-04-08T09:45:08.891Z,95.63
2023-04-08T09:46:08.885Z,95.63
2023-04-08T09:47:08.766Z,95.63
2023-04-08T09:48:08.688Z,95.63
2023-04-08T09:49:08.642Z,95.63
2023-04-08T09:50:08.572Z,95.63
2023-04-08T09:51:08.529Z,95.63
2023-04-08T09:52:08.438Z,95.63
2023-04-08T09:53:08.376Z,95.63
2023-04-08T09:54:08.300Z,95.63
2023-04-08T09:55:08.240Z,95.63
2023-04-08T09:56:08.154Z,95.63
2023-04-08T09:57:08.121Z,95.63
2023-04-08T09:58:08.022Z,101.25
2023-04-08T09:59:08.006Z,101.25
2023-04-08T10:00:07.886Z,101.25
2023-04-08T10:01:07.841Z,101.25
2023-04-08T10:02:07.839Z,106.88
2023-04-08T10:03:07.865Z,106.88
2023-04-08T10:04:07.650Z,112.50
2023-04-08T10:05:08.428Z,106.88
2023-04-08T10:06:07.492Z,112.50
2023-04-08T10:07:07.420Z,112.50
2023-04-08T10:08:07.377Z,112.50
2023-04-08T10:09:07.289Z,118.13
2023-04-08T10:10:07.243Z,118.13
2023-04-08T10:11:07.157Z,123.75
2023-04-08T10:12:07.091Z,118.13
2023-04-08T10:13:07.021Z,118.13
2023-04-08T10:14:06.956Z,118.13
2023-04-08T10:15:06.893Z,118.13
2023-04-08T10:16:07.617Z,112.50
2023-04-08T10:17:06.895Z,112.50
2023-04-08T10:18:06.725Z,106.88
2023-04-08T10:19:06.657Z,106.88
2023-04-08T10:20:06.568Z,112.50
2023-04-08T10:21:06.500Z,118.13
2023-04-08T10:22:08.031Z,123.75
2023-04-08T10:23:06.359Z,129.38
2023-04-08T10:24:06.337Z,129.38
2023-04-08T10:25:06.221Z,129.38
2023-04-08T10:26:06.157Z,129.38
2023-04-08T10:27:06.092Z,129.38
2023-04-08T10:28:07.536Z,135.00
2023-04-08T10:29:05.962Z,135.00
2023-04-08T10:30:05.890Z,146.25
2023-04-08T10:31:05.820Z,151.88
2023-04-08T10:32:05.779Z,151.88
2023-04-08T10:33:05.730Z,157.50
2023-04-08T10:34:05.632Z,168.75
2023-04-08T10:35:05.559Z,168.75
2023-04-08T10:36:05.575Z,174.38
2023-04-08T10:37:05.421Z,174.38
2023-04-08T10:38:05.366Z,168.75
2023-04-08T10:39:05.299Z,168.75
2023-04-08T10:40:05.304Z,174.38
2023-04-08T10:41:05.159Z,174.38
2023-04-08T10:42:05.110Z,174.38
2023-04-08T10:43:05.026Z,168.75
2023-04-08T10:44:04.968Z,163.13
2023-04-08T10:45:04.897Z,163.13
2023-04-08T10:46:04.947Z,163.13
2023-04-08T10:47:04.763Z,163.13
2023-04-08T10:48:04.728Z,163.13
2023-04-08T10:49:04.654Z,151.88
2023-04-08T10:50:04.573Z,146.25
2023-04-08T10:51:04.537Z,151.88
2023-04-08T10:52:04.442Z,151.88
2023-04-08T10:53:04.377Z,157.50
2023-04-08T10:54:04.314Z,163.13
2023-04-08T10:55:04.238Z,163.13
2023-04-08T10:56:04.180Z,163.13
2023-04-08T10:57:04.118Z,168.75
2023-04-08T10:58:04.039Z,163.13
2023-04-08T10:59:03.996Z,151.88
2023-04-08T11:00:03.921Z,151.88
2023-04-08T11:01:03.884Z,157.50
2023-04-08T11:02:04.013Z,157.50
2023-04-08T11:03:03.914Z,157.50
2023-04-08T11:04:03.719Z,157.50
2023-04-08T11:05:03.581Z,151.88
2023-04-08T11:06:03.543Z,163.13
2023-04-08T11:07:03.447Z,163.13
2023-04-08T11:08:03.384Z,163.13
2023-04-08T11:09:03.318Z,163.13
2023-04-08T11:10:03.254Z,157.50
2023-04-08T11:11:03.192Z,146.25
2023-04-08T11:12:03.121Z,135.00
2023-04-08T11:13:03.056Z,129.38
2023-04-08T11:14:02.995Z,123.75
2023-04-08T11:15:02.967Z,123.75
2023-04-08T11:16:02.946Z,123.75
2023-04-08T11:17:02.793Z,118.13
2023-04-08T11:18:02.751Z,118.13
2023-04-08T11:19:02.661Z,123.75
2023-04-08T11:20:02.608Z,129.38
2023-04-08T11:21:02.530Z,135.00
2023-04-08T11:22:02.464Z,135.00
2023-04-08T11:23:02.448Z,140.63
2023-04-08T11:24:02.357Z,146.25
2023-04-08T11:25:02.270Z,146.25
2023-04-08T11:26:02.203Z,140.63
2023-04-08T11:27:02.157Z,140.63
2023-04-08T11:28:02.098Z,146.25
2023-04-08T11:29:02.004Z,151.88
2023-04-08T11:30:01.970Z,157.50
2023-04-08T11:31:01.912Z,157.50
2023-04-08T11:32:01.807Z,151.88
2023-04-08T11:33:01.781Z,140.63
2023-04-08T11:34:01.676Z,140.63
2023-04-08T11:35:01.614Z,135.00
2023-04-08T11:36:01.706Z,140.63
2023-04-08T11:37:01.550Z,140.63
2023-04-08T11:38:01.411Z,146.25
2023-04-08T11:39:01.351Z,157.50
2023-04-08T11:40:01.283Z,157.50
2023-04-08T11:41:01.218Z,157.50
2023-04-08T11:42:01.153Z,151.88
2023-04-08T11:43:01.080Z,151.88
2023-04-08T11:44:01.050Z,146.25
2023-04-08T11:45:00.951Z,135.00
2023-04-08T11:46:00.894Z,129.38
2023-04-08T11:47:00.817Z,123.75
2023-04-08T11:48:02.953Z,118.13
2023-04-08T11:49:00.683Z,118.13
2023-04-08T11:50:00.620Z,112.50
2023-04-08T11:51:00.547Z,112.50
2023-04-08T11:52:00.526Z,112.50
2023-04-08T11:53:00.433Z,101.25
2023-04-08T11:54:00.356Z,95.63
2023-04-08T11:55:00.287Z,95.63
2023-04-08T11:56:00.224Z,95.63
2023-04-08T11:57:00.206Z,101.25
2023-04-08T11:58:00.129Z,112.50
2023-04-08T11:59:00.024Z,112.50
2023-04-08T11:59:59.967Z,112.50
2023-04-08T12:00:59.896Z,106.88
2023-04-08T12:01:59.871Z,101.25
2023-04-08T12:02:59.896Z,101.25
2023-04-08T12:03:59.888Z,95.63
2023-04-08T12:04:59.660Z,95.63
2023-04-08T12:05:59.567Z,90.00
2023-04-08T12:06:59.497Z,90.00
2023-04-08T12:07:59.442Z,90.00
2023-04-08T12:08:59.363Z,90.00
2023-04-08T12:09:59.311Z,90.00
2023-04-08T12:11:09.359Z,84.38
2023-04-08T12:11:59.173Z,84.38
2023-04-08T12:12:59.106Z,84.38
2023-04-08T12:13:59.043Z,84.38
2023-04-08T12:14:58.965Z,78.75
2023-04-08T12:15:58.921Z,78.75
2023-04-08T12:16:58.837Z,78.75
2023-04-08T12:17:58.790Z,78.75
2023-04-08T12:18:58.700Z,78.75
2023-04-08T12:19:58.656Z,78.75
2023-04-08T12:20:58.569Z,73.13
2023-04-08T12:21:58.501Z,73.13
2023-04-08T12:22:58.430Z,67.50
2023-04-08T12:23:58.370Z,67.50
2023-04-08T12:24:59.340Z,67.50
2023-04-08T12:25:58.238Z,61.88
2023-04-08T12:26:58.171Z,61.88
2023-04-08T12:27:58.103Z,61.88
2023-04-08T12:28:58.041Z,61.88
2023-04-08T12:29:57.973Z,61.88
2023-04-08T12:30:57.995Z,56.25
2023-04-08T12:31:57.963Z,56.25
2023-04-08T12:32:57.963Z,56.25
2023-04-08T12:33:57.710Z,56.25
2023-04-08T12:34:57.639Z,56.25
2023-04-08T12:35:57.588Z,50.63
2023-04-08T12:36:57.510Z,50.63
2023-04-08T12:37:57.451Z,50.63
2023-04-08T12:38:57.371Z,50.63
2023-04-08T12:39:57.313Z,50.63
2023-04-08T12:40:57.297Z,50.63
2023-04-08T12:41:57.176Z,50.63
2023-04-08T12:42:57.150Z,45.00
2023-04-08T12:43:57.048Z,50.63
2023-04-08T12:44:56.975Z,50.63
2023-04-08T12:45:56.908Z,50.63
2023-04-08T12:46:56.914Z,50.63
2023-04-08T12:47:56.854Z,56.25
2023-04-08T12:49:04.081Z,56.25
2023-04-08T12:49:56.651Z,56.25
2023-04-08T12:50:56.584Z,56.25
2023-04-08T12:51:56.516Z,61.88
2023-04-08T12:52:56.442Z,61.88
2023-04-08T12:53:56.379Z,56.25
2023-04-08T12:54:56.307Z,61.88
2023-04-08T12:55:56.278Z,61.88
2023-04-08T12:56:56.172Z,67.50
2023-04-08T12:57:56.114Z,67.50
2023-04-08T12:58:56.042Z,67.50
2023-04-08T12:59:55.975Z,67.50
2023-04-08T13:00:55.934Z,67.50
2023-04-08T13:01:55.870Z,67.50
2023-04-08T13:02:55.844Z,67.50
2023-04-08T13:03:55.815Z,67.50
2023-04-08T13:04:55.642Z,61.88
2023-04-08T13:05:55.588Z,61.88
2023-04-08T13:06:55.523Z,56.25
2023-04-08T13:07:55.443Z,50.63
2023-04-08T13:08:55.374Z,50.63
2023-04-08T13:09:55.315Z,50.63
2023-04-08T13:10:55.239Z,50.63
2023-04-08T13:11:55.171Z,45.00
2023-04-08T13:12:55.104Z,45.00
2023-04-08T13:13:55.079Z,50.63
2023-04-08T13:14:54.971Z,50.63
2023-04-08T13:15:54.904Z,50.63
2023-04-08T13:16:54.883Z,45.00
2023-04-08T13:17:54.821Z,39.38
2023-04-08T13:18:54.702Z,33.75
2023-04-08T13:19:54.637Z,33.75
2023-04-08T13:20:54.599Z,33.75
2023-04-08T13:21:54.503Z,39.38
2023-04-08T13:22:54.436Z,39.38
2023-04-08T13:23:54.367Z,45.00
2023-04-08T13:24:54.313Z,45.00
2023-04-08T13:25:54.236Z,50.63
2023-04-08T13:26:54.162Z,50.63
2023-04-08T13:27:54.103Z,56.25
2023-04-08T13:28:57.795Z,56.25
2023-04-08T13:29:53.960Z,61.88
2023-04-08T13:30:53.898Z,61.88
2023-04-08T13:31:53.850Z,61.88
2023-04-08T13:32:53.786Z,61.88
2023-04-08T13:33:56.937Z,61.88
2023-04-08T13:34:53.632Z,56.25
2023-04-08T13:35:53.627Z,50.63
2023-04-08T13:36:53.513Z,50.63
2023-04-08T13:37:53.422Z,50.63
2023-04-08T13:38:53.497Z,50.63
2023-04-08T13:39:53.289Z,50.63
2023-04-08T13:40:53.227Z,45.00
2023-04-08T13:41:53.153Z,45.00
2023-04-08T13:42:53.094Z,45.00
2023-04-08T13:43:53.022Z,39.38
2023-04-08T13:44:52.955Z,33.75
2023-04-08T13:45:52.933Z,33.75
2023-04-08T13:46:52.818Z,33.75
2023-04-08T13:47:52.808Z,33.75
2023-04-08T13:48:53.007Z,33.75
2023-04-08T13:49:52.624Z,33.75
2023-04-08T13:50:52.559Z,39.38
2023-04-08T13:51:52.487Z,33.75
2023-04-08T13:52:52.436Z,33.75
2023-04-08T13:53:52.343Z,33.75
2023-04-08T13:54:52.298Z,33.75
2023-04-08T13:55:52.238Z,39.38
2023-04-08T13:56:52.143Z,45.00
2023-04-08T13:57:52.076Z,50.63
2023-04-08T13:58:57.217Z,56.25
2023-04-08T13:59:51.939Z,61.88
2023-04-08T14:00:52.070Z,61.88
2023-04-08T14:01:51.910Z,61.88
2023-04-08T14:02:51.814Z,61.88
2023-04-08T14:03:51.676Z,61.88
2023-04-08T14:04:51.644Z,61.88
2023-04-08T14:05:51.577Z,61.88
2023-04-08T14:06:51.504Z,61.88
2023-04-08T14:07:51.409Z,56.25
2023-04-08T14:08:51.577Z,56.25
2023-04-08T14:09:51.267Z,56.25
2023-04-08T14:10:51.205Z,50.63
2023-04-08T14:11:51.134Z,45.00
2023-04-08T14:12:51.070Z,39.38
2023-04-08T14:13:51.009Z,39.38
2023-04-08T14:14:50.937Z,39.38
2023-04-08T14:15:50.871Z,39.38
2023-04-08T14:16:50.842Z,39.38
2023-04-08T14:17:50.803Z,39.38
2023-04-08T14:18:50.868Z,39.38
2023-04-08T14:19:50.603Z,39.38
2023-04-08T14:20:50.547Z,33.75
2023-04-08T14:21:50.478Z,28.13
2023-04-08T14:22:50.403Z,28.13
2023-04-08T14:23:50.356Z,22.50
2023-04-08T14:24:50.276Z,16.88
2023-04-08T14:25:50.197Z,16.88
2023-04-08T14:26:50.128Z,16.88
2023-04-08T14:27:58.077Z,22.50
2023-04-08T14:28:50.188Z,28.13
2023-04-08T14:29:49.932Z,28.13
2023-04-08T14:30:49.896Z,28.13
2023-04-08T14:31:49.797Z,28.13
2023-04-08T14:32:49.858Z,28.13
2023-04-08T14:33:49.659Z,28.13
2023-04-08T14:34:49.607Z,28.13
2023-04-08T14:35:49.590Z,28.13
2023-04-08T14:36:49.456Z,28.13
2023-04-08T14:37:49.386Z,28.13
2023-04-08T14:38:49.437Z,28.13
2023-04-08T14:39:49.272Z,28.13
2023-04-08T14:40:49.193Z,28.13
2023-04-08T14:41:49.130Z,28.13
2023-04-08T14:42:49.056Z,28.13
2023-04-08T14:43:49.028Z,28.13
2023-04-08T14:44:48.921Z,33.75
2023-04-08T14:45:48.848Z,33.75
2023-04-08T14:46:48.841Z,33.75
2023-04-08T14:47:48.762Z,28.13
2023-04-08T14:48:48.726Z,28.13
2023-04-08T14:49:48.584Z,28.13
2023-04-08T14:50:48.548Z,28.13
2023-04-08T14:51:48.448Z,28.13
2023-04-08T14:52:48.389Z,28.13
2023-04-08T14:53:48.319Z,28.13
2023-04-08T14:54:48.263Z,28.13
2023-04-08T14:55:48.179Z,28.13
2023-04-08T14:56:48.127Z,28.13
2023-04-08T14:57:48.045Z,28.13
2023-04-08T14:58:47.989Z,28.13
2023-04-08T14:59:47.911Z,22.50
2023-04-08T15:00:47.841Z,22.50
2023-04-08T15:01:47.871Z,22.50
2023-04-08T15:02:47.821Z,22.50
2023-04-08T15:03:47.813Z,22.50
2023-04-08T15:04:47.587Z,16.88
2023-04-08T15:05:47.510Z,16.88
2023-04-08T15:06:47.444Z,16.88
2023-04-08T15:07:47.399Z,16.88
2023-04-08T15:08:47.304Z,16.88
2023-04-08T15:09:47.236Z,16.88
2023-04-08T15:10:47.175Z,16.88
2023-04-08T15:11:47.102Z,16.88
2023-04-08T15:12:47.038Z,16.88
2023-04-08T15:13:46.983Z,16.88
2023-04-08T15:14:46.907Z,16.88
2023-04-08T15:15:46.848Z,16.88
2023-04-08T15:16:46.765Z,16.88
2023-04-08T15:17:46.724Z,16.88
2023-04-08T15:18:46.653Z,16.88
2023-04-08T15:19:46.564Z,16.88
2023-04-08T15:20:46.496Z,16.88
2023-04-08T15:21:46.436Z,22.50
2023-04-08T15:22:48.087Z,22.50
2023-04-08T15:23:46.296Z,22.50
2023-04-08T15:24:47.927Z,22.50
2023-04-08T15:25:46.154Z,22.50
2023-04-08T15:26:46.097Z,16.88
2023-04-08T15:27:46.032Z,16.88
2023-04-08T15:28:45.958Z,22.50
2023-04-08T15:29:45.917Z,22.50
2023-04-08T15:30:45.827Z,22.50
2023-04-08T15:31:45.756Z,28.13
2023-04-08T15:32:45.729Z,28.13
2023-04-08T15:33:46.540Z,33.75
2023-04-08T15:34:45.553Z,39.38
2023-04-08T15:35:45.545Z,39.38
2023-04-08T15:36:45.417Z,45.00
2023-04-08T15:37:45.347Z,45.00
2023-04-08T15:38:45.285Z,45.00
2023-04-08T15:39:45.212Z,45.00
2023-04-08T15:40:47.940Z,39.38
2023-04-08T15:41:45.076Z,39.38
2023-04-08T15:42:45.012Z,33.75
2023-04-08T15:43:44.945Z,33.75
2023-04-08T15:44:44.893Z,33.75
2023-04-08T15:45:44.812Z,28.13
2023-04-08T15:46:44.823Z,28.13
2023-04-08T15:47:44.722Z,33.75
2023-04-08T15:48:44.617Z,33.75
2023-04-08T15:49:44.571Z,33.75
2023-04-08T15:50:44.510Z,39.38
2023-04-08T15:51:44.443Z,39.38
2023-04-08T15:52:44.342Z,39.38
2023-04-08T15:53:44.322Z,39.38
2023-04-08T15:54:44.203Z,39.38
2023-04-08T15:55:44.136Z,39.38
2023-04-08T15:56:44.066Z,39.38
2023-04-08T15:57:44.007Z,45.00
2023-04-08T15:58:43.939Z,45.00
2023-04-08T15:59:43.921Z,50.63
2023-04-08T16:00:43.799Z,50.63
2023-04-08T16:01:43.782Z,50.63
2023-04-08T16:02:43.838Z,56.25
2023-04-08T16:03:43.800Z,56.25
2023-04-08T16:04:43.589Z,56.25
2023-04-08T16:05:43.464Z,56.25
2023-04-08T16:06:44.550Z,50.63
2023-04-08T16:07:43.325Z,50.63
2023-04-08T16:08:43.263Z,50.63
2023-04-08T16:09:43.190Z,50.63
2023-04-08T16:10:43.135Z,50.63
2023-04-08T16:11:43.059Z,45.00
2023-04-08T16:12:42.991Z,45.00
2023-04-08T16:13:42.953Z,45.00
2023-04-08T16:14:42.899Z,45.00
2023-04-08T16:15:42.829Z,45.00
2023-04-08T16:16:42.791Z,45.00
2023-04-08T16:17:42.723Z,39.38
2023-04-08T16:18:42.621Z,39.38
2023-04-08T16:19:42.547Z,39.38
2023-04-08T16:20:42.454Z,39.38
2023-04-08T16:21:42.384Z,39.38
2023-04-08T16:22:42.329Z,39.38
2023-04-08T16:23:42.256Z,39.38
2023-04-08T16:24:42.205Z,39.38
2023-04-08T16:25:42.119Z,39.38
2023-04-08T16:26:42.147Z,39.38
2023-04-08T16:27:41.985Z,39.38
2023-04-08T16:28:41.927Z,39.38
2023-04-08T16:29:41.900Z,39.38
2023-04-08T16:30:41.801Z,33.75
2023-04-08T16:31:41.736Z,33.75
2023-04-08T16:32:41.677Z,33.75
2023-04-08T16:33:41.604Z,33.75
2023-04-08T16:34:41.521Z,28.13
2023-04-08T16:35:41.484Z,22.50
2023-04-08T16:36:41.393Z,22.50
2023-04-08T16:37:41.312Z,16.88
2023-04-08T16:38:41.251Z,16.88
2023-04-08T16:39:41.209Z,16.88
2023-04-08T16:40:41.117Z,16.88
2023-04-08T16:41:41.049Z,16.88
2023-04-08T16:42:40.987Z,16.88
2023-04-08T16:43:40.913Z,22.50
2023-04-08T16:44:40.846Z,22.50
2023-04-08T16:45:40.808Z,22.50
2023-04-08T16:46:40.714Z,22.50
2023-04-08T16:47:40.696Z,22.50
2023-04-08T16:48:40.584Z,16.88
2023-04-08T16:49:40.517Z,16.88
2023-04-08T16:50:40.445Z,16.88
2023-04-08T16:51:40.639Z,16.88
2023-04-08T16:52:40.315Z,16.88
2023-04-08T16:53:40.256Z,16.88
2023-04-08T16:54:40.204Z,16.88
2023-04-08T16:55:40.107Z,16.88
2023-04-08T16:56:40.052Z,11.25
2023-04-08T16:57:39.973Z,11.25
2023-04-08T16:58:39.907Z,11.25
2023-04-08T16:59:39.882Z,11.25
2023-04-08T17:00:39.806Z,11.25
2023-04-08T17:01:39.747Z,11.25
2023-04-08T17:02:39.934Z,11.25
2023-04-08T17:03:39.717Z,5.63
2023-04-08T17:04:39.506Z,5.63
2023-04-08T17:05:39.494Z,5.63
2023-04-08T17:06:39.372Z,5.63
2023-04-08T17:07:39.301Z,11.25
2023-04-08T17:08:39.236Z,11.25
2023-04-08T17:09:39.166Z,11.25
2023-04-08T17:10:39.097Z,11.25
2023-04-08T17:11:39.091Z,11.25
2023-04-08T17:12:38.968Z,5.63
2023-04-08T17:13:38.920Z,5.63
2023-04-08T17:14:38.831Z,5.63
2023-04-08T17:15:38.827Z,5.63
2023-04-08T17:16:38.749Z,5.63
2023-04-08T17:17:38.652Z,5.63
2023-04-08T17:18:38.560Z,5.63
2023-04-08T17:19:38.529Z,5.63
2023-04-08T17:20:38.431Z,5.63
2023-04-08T17:21:38.362Z,5.63
2023-04-08T17:22:38.295Z,5.63
2023-04-08T17:23:38.225Z,5.63
2023-04-08T17:24:38.161Z,5.63
2023-04-08T17:25:38.111Z,5.63
2023-04-08T17:26:38.028Z,5.63
2023-04-08T17:27:37.964Z,5.63
2023-04-08T17:28:37.896Z,5.63
2023-04-08T17:29:37.846Z,5.63
2023-04-08T17:30:37.761Z,5.63
2023-04-08T17:31:37.773Z,5.63
2023-04-08T17:32:37.656Z,0.00
2023-04-08T17:33:37.662Z,0.00
2023-04-08T17:34:37.578Z,0.00
2023-04-08T17:35:37.430Z,0.00
2023-04-08T17:36:37.356Z,0.00
2023-04-08T17:37:37.292Z,0.00
2023-04-08T17:38:37.219Z,0.00
2023-04-08T17:39:37.153Z,0.00
2023-04-08T17:40:37.109Z,0.00
2023-04-08T17:41:40.148Z,0.00
2023-04-08T17:42:36.960Z,0.00
2023-04-08T17:43:36.884Z,0.00
2023-04-08T17:44:36.865Z,0.00
2023-04-08T17:45:36.773Z,0.00
2023-04-08T17:46:36.682Z,0.00
2023-04-08T17:47:36.656Z,0.00
2023-04-08T17:48:36.547Z,0.00
2023-04-08T17:49:36.487Z,0.00
2023-04-08T17:50:36.410Z,0.00
2023-04-08T17:51:36.355Z,0.00
2023-04-08T17:52:36.276Z,0.00
2023-04-08T17:53:36.214Z,0.00
2023-04-08T17:54:36.141Z,0.00
2023-04-08T17:55:36.080Z,0.00
2023-04-08T17:56:36.017Z,0.00
2023-04-08T17:57:35.944Z,0.00
2023-04-08T17:58:35.871Z,0.00
2023-04-08T17:59:35.809Z,0.00
2023-04-08T18:00:35.754Z,0.00
2023-04-08T18:01:35.778Z,0.00
2023-04-08T18:02:35.697Z,0.00
2023-04-08T18:03:35.619Z,0.00
2023-04-08T18:04:35.468Z,0.00
2023-04-08T18:05:35.401Z,0.00
2023-04-08T18:06:35.341Z,0.00
2023-04-08T18:07:35.271Z,0.00
2023-04-08T18:08:35.206Z,0.00
2023-04-08T18:09:35.137Z,0.00
2023-04-08T18:10:35.074Z,0.00
2023-04-08T18:11:34.998Z,0.00
2023-04-08T18:12:34.934Z,0.00
2023-04-08T18:13:34.866Z,0.00
2023-04-08T18:14:34.815Z,0.00
2023-04-08T18:15:34.760Z,0.00
2023-04-08T18:16:34.689Z,0.00
2023-04-08T18:17:34.627Z,0.00
2023-04-08T18:18:34.523Z,0.00
2023-04-08T18:19:34.458Z,0.00
2023-04-08T18:20:34.406Z,0.00
2023-04-08T18:21:34.323Z,0.00
2023-04-08T18:22:34.262Z,0.00
2023-04-08T18:23:34.191Z,0.00
2023-04-08T18:24:34.154Z,0.00
2023-04-08T18:25:34.050Z,0.00
2023-04-08T18:26:34.001Z,0.00
2023-04-08T18:27:33.976Z,0.00
2023-04-08T18:28:33.863Z,0.00
2023-04-08T18:29:33.787Z,0.00
2023-04-08T18:30:33.754Z,0.00
2023-04-08T18:31:33.670Z,0.00
2023-04-08T18:32:33.601Z,0.00
2023-04-08T18:33:33.518Z,0.00
2023-04-08T18:34:33.451Z,0.00
2023-04-08T18:35:33.462Z,0.00
2023-04-08T18:36:33.319Z,0.00
2023-04-08T18:37:33.248Z,0.00
2023-04-08T18:38:33.181Z,0.00
2023-04-08T18:39:33.116Z,0.00
2023-04-08T18:40:33.078Z,0.00
2023-04-08T18:41:32.994Z,0.00